Time;durP1;ratioP1;P1;durP2;ratioP2;P2;SDS_P1;SDS_P2;PMS_P1;PMS_P2;Temp;Humidity;BMP_temperature;BMP_pressure;BME280_temperature;BME280_humidity;BME280_pressure;Samples;Min_cycle;Max_cycle;Signal;HPM_P1;HPM_P2
2022/11/03 00:01:44;;;;;;;10.88;2.00;;;11.50;99.90;;;;;;5048600;28;20055;-67
2022/11/03 00:04:12;;;;;;;8.20;2.13;;;11.60;99.90;;;;;;5052755;28;20049;-67
2022/11/03 00:06:38;;;;;;;9.35;1.60;;;11.60;99.90;;;;;;5052656;28;20049;-67
2022/11/03 00:09:07;;;;;;;6.72;2.22;;;11.50;99.90;;;;;;5052767;28;20476;-67
2022/11/03 00:11:35;;;;;;;9.55;2.15;;;11.50;99.90;;;;;;5051942;28;20049;-67
2022/11/03 00:14:01;;;;;;;12.23;2.42;;;11.60;99.90;;;;;;5052342;28;20040;-68
2022/11/03 00:16:27;;;;;;;10.43;2.05;;;11.60;99.90;;;;;;5052792;28;20047;-67
2022/11/03 00:18:53;;;;;;;10.55;1.77;;;11.60;99.90;;;;;;5052670;28;20040;-67
2022/11/03 00:21:19;;;;;;;12.10;2.15;;;11.50;99.90;;;;;;5052801;28;20037;-67
2022/11/03 00:23:45;;;;;;;8.55;2.33;;;11.60;99.90;;;;;;5052017;28;20130;-67
2022/11/03 00:26:15;;;;;;;11.95;2.80;;;11.60;99.90;;;;;;5052748;28;20040;-67
2022/11/03 00:28:45;;;;;;;6.22;1.77;;;11.50;99.90;;;;;;5052524;28;20045;-67
2022/11/03 00:31:14;;;;;;;8.40;2.25;;;11.50;99.90;;;;;;5052656;28;20409;-67
2022/11/03 00:33:40;;;;;;;7.82;2.08;;;11.50;99.90;;;;;;5052443;28;20116;-67
2022/11/03 00:36:09;;;;;;;10.38;2.53;;;11.50;99.90;;;;;;5052049;28;20115;-67
2022/11/03 00:38:36;;;;;;;9.15;2.10;;;11.50;99.90;;;;;;5051889;28;20033;-67
2022/11/03 00:41:03;;;;;;;9.40;2.80;;;11.50;99.90;;;;;;5052377;28;20044;-67
2022/11/03 00:43:31;;;;;;;7.75;2.17;;;11.40;99.90;;;;;;5052216;28;20117;-67
2022/11/03 00:45:56;;;;;;;6.22;2.42;;;11.40;99.90;;;;;;5052015;28;20087;-67
2022/11/03 00:48:28;;;;;;;10.38;2.38;;;11.50;99.90;;;;;;5051989;28;20048;-67
2022/11/03 00:51:05;;;;;;;5.93;1.77;;;11.50;99.90;;;;;;5051867;28;20040;-67
2022/11/03 00:53:55;;;;;;;5.63;1.70;;;11.50;99.90;;;;;;5052185;28;20037;-67
2022/11/03 00:56:23;;;;;;;8.32;2.13;;;11.50;99.90;;;;;;5051290;28;20044;-67
2022/11/03 00:58:50;;;;;;;12.18;2.15;;;11.40;99.90;;;;;;5050364;28;20044;-67
2022/11/03 01:01:21;;;;;;;7.28;2.38;;;11.40;99.90;;;;;;5051778;28;20041;-67
2022/11/03 01:06:49;;;;;;;9.43;2.13;;;11.40;99.90;;;;;;5051774;28;20044;-67
2022/11/03 01:09:16;;;;;;;8.43;2.35;;;11.40;99.90;;;;;;5051673;28;20161;-67
2022/11/03 01:11:49;;;;;;;11.57;2.60;;;11.40;99.90;;;;;;5050116;28;20105;-67
2022/11/03 01:14:15;;;;;;;9.60;2.10;;;11.40;99.90;;;;;;5051334;28;20029;-67
2022/11/03 01:16:41;;;;;;;9.55;2.30;;;11.40;99.90;;;;;;5051400;28;20036;-67
2022/11/03 01:19:07;;;;;;;14.30;2.28;;;11.40;99.90;;;;;;5051765;28;20341;-67
2022/11/03 01:21:33;;;;;;;7.03;3.25;;;11.40;99.90;;;;;;5051464;28;20041;-67
2022/11/03 01:24:00;;;;;;;6.45;2.00;;;11.40;99.90;;;;;;5050561;28;20091;-67
2022/11/03 01:26:26;;;;;;;10.55;2.03;;;11.40;99.90;;;;;;5051216;28;20051;-67
2022/11/03 01:28:52;;;;;;;9.75;2.65;;;11.40;99.90;;;;;;5051436;28;20049;-67
2022/11/03 01:31:21;;;;;;;9.25;1.80;;;11.40;99.90;;;;;;5051397;28;20052;-67
2022/11/03 01:33:49;;;;;;;13.98;2.50;;;11.40;99.90;;;;;;5051020;28;20102;-67
2022/11/03 01:36:17;;;;;;;8.13;3.42;;;11.40;99.90;;;;;;5051176;28;20440;-67
2022/11/03 01:38:43;;;;;;;13.35;2.30;;;11.40;99.90;;;;;;5050447;28;20068;-67
2022/11/03 01:41:13;;;;;;;13.00;2.28;;;11.30;99.90;;;;;;5051075;28;20083;-67
2022/11/03 01:43:39;;;;;;;8.43;2.65;;;11.40;99.90;;;;;;5050589;28;20387;-67
2022/11/03 01:46:18;;;;;;;7.28;1.90;;;11.40;99.90;;;;;;5050929;28;20045;-67
2022/11/03 01:49:00;;;;;;;11.45;2.45;;;11.40;99.90;;;;;;5050938;28;20052;-67
2022/11/03 01:51:29;;;;;;;9.18;2.53;;;11.40;99.90;;;;;;5051168;28;20055;-67
2022/11/03 01:53:59;;;;;;;7.72;2.15;;;11.40;99.90;;;;;;5050583;28;20029;-67
2022/11/03 01:56:25;;;;;;;9.20;2.10;;;11.40;99.90;;;;;;5050771;28;20033;-67
2022/11/03 01:58:54;;;;;;;9.63;2.40;;;11.50;99.90;;;;;;5050712;28;20045;-67
2022/11/03 02:01:20;;;;;;;11.30;2.38;;;11.50;99.90;;;;;;5051009;28;20041;-67
2022/11/03 02:03:53;;;;;;;5.93;1.95;;;11.50;99.90;;;;;;5050449;28;20386;-67
2022/11/03 02:06:22;;;;;;;9.93;2.05;;;11.50;99.90;;;;;;5050843;28;20566;-67
2022/11/03 02:09:04;;;;;;;11.35;2.72;;;11.50;99.90;;;;;;5050530;28;20083;-67
2022/11/03 02:14:15;;;;;;;8.40;2.25;;;11.50;99.90;;;;;;5050410;28;20049;-67
2022/11/03 02:16:46;;;;;;;11.95;2.50;;;11.50;99.90;;;;;;5050645;28;20328;-67
2022/11/03 02:19:29;;;;;;;13.52;1.95;;;11.50;99.90;;;;;;5050693;28;20444;-67
2022/11/03 02:22:15;;;;;;;6.43;2.28;;;11.50;99.90;;;;;;5050728;28;20033;-67
2022/11/03 02:24:50;;;;;;;7.68;2.10;;;11.50;99.90;;;;;;5050676;28;20090;-67
2022/11/03 02:27:16;;;;;;;8.43;2.38;;;11.50;99.90;;;;;;5050497;28;20033;-67
2022/11/03 02:29:41;;;;;;;13.10;3.47;;;11.50;99.90;;;;;;5050425;28;20799;-67
2022/11/03 02:32:20;;;;;;;7.00;2.42;;;11.40;99.90;;;;;;5050578;28;20087;-67
2022/11/03 02:34:53;;;;;;;11.27;2.22;;;11.40;99.90;;;;;;5051361;28;20037;-67
2022/11/03 02:37:42;;;;;;;10.82;2.20;;;11.50;99.90;;;;;;5054399;28;20048;-67
2022/11/03 02:40:34;;;;;;;6.40;2.55;;;11.40;99.90;;;;;;5054669;28;20063;-67
2022/11/03 02:43:02;;;;;;;10.70;2.28;;;11.40;99.90;;;;;;5054490;28;20067;-67
2022/11/03 02:45:29;;;;;;;9.18;1.92;;;11.50;99.90;;;;;;5054166;28;20068;-67
2022/11/03 02:47:58;;;;;;;10.45;2.55;;;11.50;99.90;;;;;;5054383;28;20045;-67
2022/11/03 02:50:29;;;;;;;8.88;2.03;;;11.50;99.90;;;;;;5054143;28;20048;-67
2022/11/03 02:52:54;;;;;;;13.48;2.22;;;11.50;99.90;;;;;;5054396;28;20378;-67
2022/11/03 02:55:43;;;;;;;10.25;2.28;;;11.50;99.90;;;;;;5054231;28;20086;-67
2022/11/03 02:58:23;;;;;;;8.15;2.03;;;11.50;99.90;;;;;;5053805;28;20033;-67
2022/11/03 03:00:53;;;;;;;7.70;2.15;;;11.50;99.90;;;;;;5054094;28;20041;-67
2022/11/03 03:03:35;;;;;;;11.98;2.30;;;11.50;99.90;;;;;;5053931;28;20509;-67
2022/11/03 03:06:29;;;;;;;10.38;3.00;;;11.50;99.90;;;;;;5053802;28;20412;-67
2022/11/03 03:09:00;;;;;;;10.00;2.13;;;11.50;99.90;;;;;;5053222;28;20163;-67
2022/11/03 03:11:37;;;;;;;8.57;2.50;;;11.60;99.90;;;;;;5054045;28;20051;-67
2022/11/03 03:14:13;;;;;;;9.70;2.42;;;11.50;99.90;;;;;;5052157;28;20086;-67
2022/11/03 03:16:54;;;;;;;7.57;2.95;;;11.50;99.90;;;;;;5054016;28;20118;-67
2022/11/03 03:19:52;;;;;;;7.50;2.10;;;11.50;99.90;;;;;;5053667;28;20059;-67
2022/11/03 03:22:34;;;;;;;7.18;2.67;;;11.50;99.90;;;;;;5052635;28;20053;-67
2022/11/03 03:25:18;;;;;;;10.27;2.28;;;11.50;99.90;;;;;;5053352;28;20432;-67
2022/11/03 03:27:48;;;;;;;6.35;2.05;;;11.50;99.90;;;;;;5053559;28;20076;-67
2022/11/03 03:30:15;;;;;;;10.57;2.55;;;11.50;99.90;;;;;;5053632;28;20041;-67
2022/11/03 03:32:46;;;;;;;5.82;2.17;;;11.50;99.90;;;;;;5053732;28;20606;-67
2022/11/03 03:35:18;;;;;;;6.63;2.30;;;11.50;99.90;;;;;;5053181;28;20083;-67
2022/11/03 03:37:47;;;;;;;7.97;2.17;;;11.50;99.90;;;;;;5053534;28;20504;-67
2022/11/03 03:40:18;;;;;;;12.07;2.15;;;11.50;99.90;;;;;;5053389;28;20649;-68
2022/11/03 03:42:46;;;;;;;10.02;2.38;;;11.50;99.90;;;;;;5053559;28;20041;-68
2022/11/03 03:45:12;;;;;;;9.23;2.15;;;11.40;99.90;;;;;;5053564;28;20128;-67
2022/11/03 03:47:38;;;;;;;12.10;2.72;;;11.40;99.90;;;;;;5052535;28;20048;-67
2022/11/03 03:50:04;;;;;;;6.63;2.13;;;11.40;99.90;;;;;;5053129;28;20041;-67
2022/11/03 03:52:33;;;;;;;8.93;1.90;;;11.40;99.90;;;;;;5053015;28;20037;-67
2022/11/03 03:54:59;;;;;;;10.15;2.25;;;11.50;99.90;;;;;;5051766;28;20056;-67
2022/11/03 03:57:28;;;;;;;10.25;2.42;;;11.40;99.90;;;;;;5053216;28;20032;-67
2022/11/03 03:59:53;;;;;;;15.65;2.17;;;11.50;99.90;;;;;;5052861;28;20408;-67
2022/11/03 04:02:19;;;;;;;9.35;2.38;;;11.40;99.90;;;;;;5052781;28;20128;-67
2022/11/03 04:04:45;;;;;;;11.98;2.65;;;11.40;99.90;;;;;;5052620;28;20409;-67
2022/11/03 04:09:54;;;;;;;9.15;2.22;;;11.40;99.90;;;;;;5052911;28;20045;-67
2022/11/03 04:23:19;;;;;;;9.07;1.88;;;11.40;99.90;;;;;;5052890;28;20131;-67
2022/11/03 04:25:52;;;;;;;13.65;2.92;;;11.40;99.90;;;;;;5052192;28;20124;-67
2022/11/03 04:28:17;;;;;;;5.28;2.47;;;11.40;99.90;;;;;;5052666;28;20044;-67
2022/11/03 04:30:43;;;;;;;9.23;2.72;;;11.40;99.90;;;;;;5052450;28;20106;-67
2022/11/03 04:33:17;;;;;;;9.77;2.20;;;11.40;99.90;;;;;;5052556;28;20086;-67
2022/11/03 04:35:43;;;;;;;9.88;2.55;;;11.40;99.90;;;;;;5051978;28;20055;-67
2022/11/03 04:38:29;;;;;;;7.70;2.28;;;11.40;99.90;;;;;;5052576;28;20098;-67
2022/11/03 04:40:57;;;;;;;13.02;3.00;;;11.40;99.90;;;;;;5051911;28;20049;-67
2022/11/03 04:43:31;;;;;;;7.47;2.40;;;11.40;99.90;;;;;;5052094;28;20564;-67
2022/11/03 04:45:56;;;;;;;10.90;2.05;;;11.40;99.90;;;;;;5051888;28;20464;-67
2022/11/03 04:48:23;;;;;;;10.32;1.73;;;11.40;99.90;;;;;;5052030;28;20120;-67
2022/11/03 04:50:52;;;;;;;7.25;2.30;;;11.40;99.90;;;;;;5052223;28;20366;-67
2022/11/03 04:53:19;;;;;;;8.57;2.53;;;11.40;99.90;;;;;;5052349;28;20456;-67
2022/11/03 04:55:47;;;;;;;10.43;2.83;;;11.40;99.90;;;;;;5051813;28;20116;-67
2022/11/03 04:58:28;;;;;;;9.32;2.30;;;11.40;99.90;;;;;;5051820;28;20094;-67
2022/11/03 05:00:57;;;;;;;10.57;2.63;;;11.40;99.90;;;;;;5051807;28;20052;-67
2022/11/03 05:03:26;;;;;;;10.15;2.15;;;11.40;99.90;;;;;;5051678;28;20543;-67
2022/11/03 05:05:52;;;;;;;12.13;2.47;;;11.40;99.90;;;;;;5051429;28;20667;-67
2022/11/03 05:08:18;;;;;;;9.18;2.33;;;11.40;99.90;;;;;;5051765;28;20041;-67
2022/11/03 05:10:46;;;;;;;9.55;2.58;;;11.50;99.90;;;;;;5051590;28;20516;-67
2022/11/03 05:13:29;;;;;;;10.10;2.53;;;11.50;99.90;;;;;;5051335;28;20505;-67
2022/11/03 05:16:02;;;;;;;10.27;1.85;;;11.50;99.90;;;;;;5051596;28;20037;-67
2022/11/03 05:18:36;;;;;;;8.05;1.98;;;11.50;99.90;;;;;;5051286;28;20041;-67
2022/11/03 05:21:08;;;;;;;6.82;2.10;;;11.50;99.90;;;;;;5051765;28;20080;-67
2022/11/03 05:23:49;;;;;;;11.27;3.97;;;11.50;99.90;;;;;;5051477;28;20094;-67
2022/11/03 05:26:28;;;;;;;13.70;2.75;;;11.50;99.90;;;;;;5051438;28;20275;-67
2022/11/03 05:28:58;;;;;;;14.30;2.90;;;11.50;99.90;;;;;;5051403;28;20037;-67
2022/11/03 05:31:29;;;;;;;6.97;2.22;;;11.50;99.90;;;;;;5051482;28;20045;-67
2022/11/03 05:33:58;;;;;;;8.00;2.05;;;11.50;99.90;;;;;;5050907;28;20433;-67
2022/11/03 05:36:28;;;;;;;9.32;2.13;;;11.50;99.90;;;;;;5051505;28;20115;-67
2022/11/03 05:39:01;;;;;;;8.88;3.00;;;11.50;99.90;;;;;;5050742;28;20094;-67
2022/11/03 05:41:29;;;;;;;8.13;2.15;;;11.50;99.90;;;;;;5051311;28;20048;-67
2022/11/03 05:43:58;;;;;;;10.43;2.42;;;11.50;99.90;;;;;;5049640;28;20065;-67
2022/11/03 05:46:28;;;;;;;10.95;2.85;;;11.50;99.90;;;;;;5050740;28;20150;-67
2022/11/03 05:48:53;;;;;;;7.57;2.45;;;11.50;99.90;;;;;;5050797;28;20055;-67
2022/11/03 05:51:25;;;;;;;10.32;3.40;;;11.50;99.90;;;;;;5050772;28;20493;-67
2022/11/03 05:53:56;;;;;;;7.68;2.40;;;11.50;99.90;;;;;;5050948;28;20044;-67
2022/11/03 05:56:23;;;;;;;8.50;2.38;;;11.50;99.90;;;;;;5051103;28;20037;-67
2022/11/03 05:58:54;;;;;;;10.15;2.75;;;11.50;99.90;;;;;;5050824;28;20037;-67
2022/11/03 06:01:27;;;;;;;14.25;3.30;;;11.50;99.90;;;;;;5050715;28;20040;-67
2022/11/03 06:03:52;;;;;;;10.32;2.30;;;11.50;99.90;;;;;;5050524;28;20530;-67
2022/11/03 06:06:33;;;;;;;4.90;2.53;;;11.40;99.90;;;;;;5050568;28;20033;-67
2022/11/03 06:09:02;;;;;;;8.55;2.75;;;11.50;99.90;;;;;;5050772;28;20048;-67
2022/11/03 06:11:35;;;;;;;10.30;2.60;;;11.50;99.90;;;;;;5050587;28;20144;-67
2022/11/03 06:14:11;;;;;;;6.15;2.13;;;11.50;99.90;;;;;;5050584;28;20041;-67
2022/11/03 06:16:46;;;;;;;10.80;2.85;;;11.50;99.90;;;;;;5050529;28;20063;-67
2022/11/03 06:19:25;;;;;;;6.15;1.90;;;11.50;99.90;;;;;;5050874;28;20071;-67
2022/11/03 06:21:52;;;;;;;11.65;2.63;;;11.40;99.90;;;;;;5050733;28;20124;-67
2022/11/03 06:24:21;;;;;;;10.30;2.60;;;11.50;99.90;;;;;;5050277;28;20566;-67
2022/11/03 06:26:49;;;;;;;12.18;2.22;;;11.50;99.90;;;;;;5050509;28;20073;-67
2022/11/03 06:29:16;;;;;;;10.98;3.03;;;11.50;99.90;;;;;;5050521;28;20067;-67
2022/11/03 06:31:46;;;;;;;14.88;2.20;;;11.50;99.90;;;;;;5050581;28;20090;-67
2022/11/03 06:34:32;;;;;;;12.82;2.92;;;11.50;99.90;;;;;;5049861;28;20497;-67
2022/11/03 06:37:04;;;;;;;12.52;3.25;;;11.50;99.90;;;;;;5047728;28;20066;-67
2022/11/03 06:39:30;;;;;;;8.25;2.03;;;11.50;99.90;;;;;;5047574;28;20037;-67
2022/11/03 06:41:55;;;;;;;4.03;2.33;;;11.50;99.90;;;;;;5049062;28;20093;-67
2022/11/03 06:44:23;;;;;;;8.30;1.88;;;11.50;99.90;;;;;;5048178;28;20049;-67
2022/11/03 06:46:50;;;;;;;10.13;3.10;;;11.50;99.90;;;;;;5050075;28;20063;-67
2022/11/03 06:49:29;;;;;;;11.75;2.78;;;11.50;99.90;;;;;;5050177;28;20623;-67
2022/11/03 06:51:57;;;;;;;11.68;2.63;;;11.50;99.90;;;;;;5048906;28;20045;-67
2022/11/03 06:54:23;;;;;;;9.10;3.20;;;11.50;99.90;;;;;;5050129;28;20045;-67
2022/11/03 06:56:49;;;;;;;7.78;2.35;;;11.50;99.90;;;;;;5050405;28;20040;-67
2022/11/03 06:59:16;;;;;;;14.45;2.80;;;11.60;99.90;;;;;;5050119;28;20434;-67
2022/11/03 07:01:46;;;;;;;6.32;2.13;;;11.60;99.90;;;;;;5050371;28;20124;-67
2022/11/03 07:04:19;;;;;;;5.35;2.10;;;11.60;99.90;;;;;;5049896;28;20045;-68
2022/11/03 07:06:46;;;;;;;6.72;2.42;;;11.60;99.90;;;;;;5050282;28;20566;-67
2022/11/03 07:09:18;;;;;;;16.05;2.67;;;11.60;99.90;;;;;;5050237;28;20056;-67
2022/11/03 07:11:46;;;;;;;13.57;2.70;;;11.60;99.90;;;;;;5050261;28;20041;-67
2022/11/03 07:14:20;;;;;;;7.45;2.33;;;11.70;99.90;;;;;;5049824;28;20102;-67
2022/11/03 07:16:47;;;;;;;6.53;2.67;;;11.60;99.90;;;;;;5048685;28;20076;-67
2022/11/03 07:19:26;;;;;;;9.13;2.88;;;11.60;99.90;;;;;;5048660;28;20059;-67
2022/11/03 07:21:59;;;;;;;8.63;2.47;;;11.70;99.90;;;;;;5051116;28;20103;-67
2022/11/03 07:24:44;;;;;;;9.95;2.40;;;11.70;99.90;;;;;;5052349;28;20067;-67
2022/11/03 07:27:28;;;;;;;10.07;2.60;;;11.80;99.90;;;;;;5053475;28;20535;-67
2022/11/03 07:29:59;;;;;;;9.18;2.30;;;11.80;99.90;;;;;;5053691;28;20056;-67
2022/11/03 07:32:31;;;;;;;10.43;2.63;;;11.80;99.90;;;;;;5053541;28;20055;-67
2022/11/03 07:35:22;;;;;;;9.38;3.03;;;11.80;99.90;;;;;;5053399;28;20065;-67
2022/11/03 07:37:50;;;;;;;8.88;2.20;;;11.80;99.90;;;;;;5051204;28;20130;-67
2022/11/03 07:40:24;;;;;;;9.95;2.33;;;11.90;99.90;;;;;;5053643;28;20102;-67
2022/11/03 07:42:50;;;;;;;9.65;2.97;;;11.90;99.90;;;;;;5053344;28;20069;-67
2022/11/03 07:45:35;;;;;;;10.27;2.83;;;11.90;99.90;;;;;;5053153;28;20425;-67
2022/11/03 07:48:18;;;;;;;11.32;2.30;;;12.00;99.90;;;;;;5053290;28;20072;-67
2022/11/03 07:50:45;;;;;;;13.30;2.65;;;12.00;99.90;;;;;;5053537;28;20044;-67
2022/11/03 07:53:17;;;;;;;7.15;2.50;;;12.10;99.90;;;;;;5051936;28;20052;-67
2022/11/03 07:55:45;;;;;;;6.72;2.78;;;12.10;99.90;;;;;;5053026;28;20056;-67
2022/11/03 07:58:21;;;;;;;7.00;2.05;;;12.10;99.90;;;;;;5053101;28;20041;-67
2022/11/03 08:00:47;;;;;;;7.45;2.45;;;12.10;99.90;;;;;;5053319;28;20118;-67
2022/11/03 08:03:26;;;;;;;8.60;2.40;;;12.20;99.90;;;;;;5053242;28;20049;-67
2022/11/03 08:05:52;;;;;;;7.28;2.75;;;12.10;99.90;;;;;;5052984;28;20040;-67
2022/11/03 08:08:17;;;;;;;9.80;2.38;;;12.20;99.90;;;;;;5052920;28;20124;-67
2022/11/03 08:10:43;;;;;;;13.40;2.55;;;12.20;99.90;;;;;;5052676;28;20045;-67
2022/11/03 08:13:08;;;;;;;9.95;3.30;;;12.30;99.90;;;;;;5053146;28;20033;-67
2022/11/03 08:15:34;;;;;;;12.30;2.78;;;12.30;99.90;;;;;;5052643;28;20037;-67
2022/11/03 08:17:59;;;;;;;6.97;2.40;;;12.40;99.90;;;;;;5053027;28;20047;-66
2022/11/03 08:20:25;;;;;;;7.55;2.28;;;12.40;99.90;;;;;;5052800;28;20114;-66
2022/11/03 08:22:50;;;;;;;13.68;3.10;;;12.40;99.90;;;;;;5053047;28;20044;-66
2022/11/03 08:25:16;;;;;;;12.45;2.63;;;12.50;99.90;;;;;;5052561;28;20405;-67
2022/11/03 08:27:41;;;;;;;9.68;2.63;;;12.50;99.90;;;;;;5051823;28;20063;-67
2022/11/03 08:30:08;;;;;;;7.47;2.65;;;12.50;99.90;;;;;;5050991;28;20045;-67
2022/11/03 08:32:34;;;;;;;12.52;3.17;;;12.60;99.90;;;;;;5052402;28;20393;-67
2022/11/03 08:34:59;;;;;;;9.70;2.05;;;12.60;99.90;;;;;;5052334;28;20033;-67
2022/11/03 08:37:25;;;;;;;8.60;2.30;;;12.70;99.90;;;;;;5052260;28;20037;-67
2022/11/03 08:39:50;;;;;;;11.02;2.75;;;12.70;99.90;;;;;;5052668;28;20047;-67
2022/11/03 08:42:16;;;;;;;9.63;3.53;;;12.70;99.90;;;;;;5052051;28;20044;-67
2022/11/03 08:44:42;;;;;;;10.38;2.35;;;12.70;99.90;;;;;;5051954;28;20051;-67
2022/11/03 08:47:07;;;;;;;8.35;2.50;;;12.80;99.90;;;;;;5052332;28;20037;-66
2022/11/03 08:49:33;;;;;;;8.77;2.20;;;12.80;99.90;;;;;;5052339;28;20041;-67
2022/11/03 08:51:59;;;;;;;10.52;2.55;;;12.80;99.90;;;;;;5052014;28;20044;-66
2022/11/03 08:54:25;;;;;;;7.55;2.13;;;12.80;99.90;;;;;;5051831;28;20045;-67
2022/11/03 08:56:50;;;;;;;11.77;2.63;;;12.90;99.90;;;;;;5051937;28;20120;-67
2022/11/03 08:59:17;;;;;;;9.15;2.33;;;12.90;99.90;;;;;;5051753;28;20072;-67
2022/11/03 09:01:43;;;;;;;10.20;2.78;;;12.90;99.90;;;;;;5052151;28;20052;-67
2022/11/03 09:04:09;;;;;;;6.15;2.00;;;13.00;99.90;;;;;;5051509;28;20052;-68
2022/11/03 09:06:34;;;;;;;7.88;2.45;;;12.90;99.90;;;;;;5051949;28;20037;-67
2022/11/03 09:09:00;;;;;;;7.53;2.13;;;13.00;99.90;;;;;;5051632;28;20041;-68
2022/11/03 09:11:25;;;;;;;6.50;2.53;;;13.00;99.90;;;;;;5051612;28;20497;-67
2022/11/03 09:13:51;;;;;;;8.88;2.55;;;13.00;99.90;;;;;;5051416;28;20041;-67
2022/11/03 09:16:16;;;;;;;6.28;1.95;;;13.10;99.90;;;;;;5050378;28;20083;-67
2022/11/03 09:18:42;;;;;;;12.18;2.33;;;13.10;99.90;;;;;;5051514;28;20045;-67
2022/11/03 09:21:07;;;;;;;13.82;2.60;;;13.10;99.90;;;;;;5051512;28;20044;-67
2022/11/03 09:23:33;;;;;;;16.50;2.70;;;13.10;99.90;;;;;;5051276;28;20187;-67
2022/11/03 09:25:58;;;;;;;14.43;2.75;;;13.10;99.90;;;;;;5051201;28;20398;-67
2022/11/03 09:28:24;;;;;;;11.20;1.98;;;13.20;99.90;;;;;;5051574;28;20464;-67
2022/11/03 09:30:49;;;;;;;10.15;2.72;;;13.30;99.90;;;;;;5051150;28;20660;-67
2022/11/03 09:33:15;;;;;;;11.82;2.10;;;13.40;99.90;;;;;;5051595;28;20041;-67
2022/11/03 09:35:40;;;;;;;6.32;2.00;;;13.40;99.90;;;;;;5051028;28;20043;-67
2022/11/03 09:38:06;;;;;;;11.32;2.08;;;13.50;99.90;;;;;;5051264;28;20120;-67
2022/11/03 09:40:33;;;;;;;9.50;2.55;;;13.60;99.90;;;;;;5051132;28;20456;-67
2022/11/03 09:42:59;;;;;;;9.75;2.45;;;13.70;99.90;;;;;;5049437;28;20040;-67
2022/11/03 09:45:24;;;;;;;4.20;1.90;;;13.80;99.90;;;;;;5049410;28;20402;-67
2022/11/03 09:47:50;;;;;;;7.13;2.38;;;13.90;99.90;;;;;;5050909;28;20045;-67
2022/11/03 09:50:18;;;;;;;14.55;2.72;;;13.90;99.90;;;;;;5050331;28;20041;-67
2022/11/03 09:52:45;;;;;;;6.30;1.90;;;13.90;99.90;;;;;;5050370;28;20033;-67
2022/11/03 09:55:17;;;;;;;7.50;2.53;;;14.00;99.90;;;;;;5049393;28;20044;-67
2022/11/03 09:57:44;;;;;;;8.68;2.30;;;14.00;99.90;;;;;;5047914;28;20405;-67
2022/11/03 10:00:17;;;;;;;5.35;1.90;;;14.00;99.90;;;;;;5049218;28;20032;-67
2022/11/03 10:02:43;;;;;;;9.43;2.10;;;14.00;99.90;;;;;;5050066;28;20467;-67
2022/11/03 10:05:31;;;;;;;11.05;3.15;;;14.00;99.90;;;;;;5049569;28;20101;-68
2022/11/03 10:08:01;;;;;;;8.80;2.08;;;14.00;99.90;;;;;;5047443;28;20124;-67
2022/11/03 10:10:28;;;;;;;14.35;2.38;;;14.10;99.90;;;;;;5049775;28;20053;-67
2022/11/03 10:12:54;;;;;;;8.55;2.28;;;14.20;99.90;;;;;;5047814;28;20060;-68
2022/11/03 10:15:22;;;;;;;6.40;1.85;;;14.20;99.90;;;;;;5049125;28;20037;-67
2022/11/03 10:17:49;;;;;;;9.43;1.85;;;14.20;99.90;;;;;;5051090;28;20044;-70
2022/11/03 10:20:18;;;;;;;7.10;1.90;;;14.20;99.90;;;;;;5049204;28;20047;-71
2022/11/03 10:22:45;;;;;;;9.68;2.72;;;14.20;99.90;;;;;;5049558;28;20041;-70
2022/11/03 10:25:34;;;;;;;6.47;1.90;;;14.20;99.90;;;;;;5050350;28;20120;-70
2022/11/03 10:28:18;;;;;;;7.13;1.90;;;14.20;99.90;;;;;;5050937;28;20041;-71
2022/11/03 10:31:05;;;;;;;4.82;1.88;;;14.30;99.90;;;;;;5050320;28;20084;-70
2022/11/03 10:33:51;;;;;;;5.20;1.83;;;14.30;99.90;;;;;;5050860;28;20112;-70
2022/11/03 10:36:17;;;;;;;5.05;1.67;;;14.30;99.90;;;;;;5050718;28;20077;-70
2022/11/03 10:38:43;;;;;;;9.55;2.30;;;14.40;99.90;;;;;;5049368;28;20076;-70
2022/11/03 10:41:14;;;;;;;9.73;2.53;;;14.40;99.90;;;;;;5050515;28;20060;-69
2022/11/03 10:43:42;;;;;;;10.02;2.80;;;14.50;99.90;;;;;;5049519;28;20072;-69
2022/11/03 10:46:15;;;;;;;3.40;1.73;;;14.50;99.90;;;;;;5050341;28;20045;-70
2022/11/03 10:48:40;;;;;;;10.20;2.05;;;14.40;99.90;;;;;;5050448;28;20064;-69
2022/11/03 10:51:10;;;;;;;5.30;1.73;;;14.50;99.90;;;;;;5049004;28;20527;-70
2022/11/03 10:53:36;;;;;;;8.48;1.75;;;14.50;99.90;;;;;;5050211;28;20741;-71
2022/11/03 10:56:02;;;;;;;9.02;2.22;;;14.50;99.90;;;;;;5051495;28;20112;-69
2022/11/03 10:58:28;;;;;;;8.35;2.30;;;14.60;99.90;;;;;;5052776;28;20037;-67
2022/11/03 11:00:54;;;;;;;6.45;1.75;;;14.70;99.90;;;;;;5054421;28;20051;-68
2022/11/03 11:03:19;;;;;;;8.45;2.50;;;14.70;99.90;;;;;;5054192;28;20037;-67
2022/11/03 11:05:47;;;;;;;3.15;1.52;;;14.80;99.90;;;;;;5054081;28;20392;-67
2022/11/03 11:08:16;;;;;;;5.13;1.65;;;14.80;99.90;;;;;;5053711;28;20080;-67
2022/11/03 11:10:44;;;;;;;8.38;1.83;;;14.90;99.90;;;;;;5054107;28;20077;-66
2022/11/03 11:13:20;;;;;;;8.93;2.22;;;15.00;99.90;;;;;;5054072;28;20037;-66
2022/11/03 11:16:00;;;;;;;8.15;1.70;;;15.20;99.90;;;;;;5053747;28;20128;-67
2022/11/03 11:18:29;;;;;;;3.88;1.45;;;15.10;99.90;;;;;;5053880;28;20041;-67
2022/11/03 11:20:59;;;;;;;4.88;1.50;;;15.10;99.90;;;;;;5054089;28;20076;-67
2022/11/03 11:23:28;;;;;;;13.18;1.70;;;15.10;99.90;;;;;;5053793;28;20048;-66
2022/11/03 11:26:09;;;;;;;8.90;2.00;;;15.00;99.90;;;;;;5053493;28;20045;-67
2022/11/03 11:28:45;;;;;;;6.68;1.90;;;15.00;99.90;;;;;;5053860;28;20045;-67
2022/11/03 11:31:26;;;;;;;7.68;1.33;;;15.00;99.90;;;;;;5053410;28;20077;-67
2022/11/03 11:34:09;;;;;;;7.28;1.70;;;15.00;99.90;;;;;;5053221;28;20493;-67
2022/11/03 11:37:06;;;;;;;7.18;2.05;;;14.90;99.90;;;;;;5053485;28;20041;-67
2022/11/03 11:39:32;;;;;;;4.22;1.48;;;14.90;99.90;;;;;;5053235;28;20041;-66
2022/11/03 11:42:20;;;;;;;8.40;1.80;;;14.90;99.90;;;;;;5053642;28;20071;-66
2022/11/03 11:44:55;;;;;;;6.05;1.55;;;14.90;99.90;;;;;;5053209;28;20519;-67
2022/11/03 11:47:45;;;;;;;7.97;1.92;;;14.90;99.90;;;;;;5053287;28;20052;-67
2022/11/03 11:50:13;;;;;;;4.95;1.73;;;14.90;99.90;;;;;;5053209;28;20045;-67
2022/11/03 11:53:00;;;;;;;7.00;1.63;;;14.90;99.90;;;;;;5053294;28;20098;-67
2022/11/03 11:55:31;;;;;;;5.60;1.70;;;14.90;99.90;;;;;;5053131;28;20079;-67
2022/11/03 11:57:59;;;;;;;8.07;1.73;;;14.90;99.90;;;;;;5053122;28;20048;-67
2022/11/03 12:00:33;;;;;;;5.15;1.60;;;14.80;99.90;;;;;;5052965;28;20081;-67
2022/11/03 12:03:01;;;;;;;8.15;1.75;;;14.80;99.90;;;;;;5052762;28;20041;-67
2022/11/03 12:05:32;;;;;;;4.70;1.67;;;14.80;99.90;;;;;;5052774;28;20112;-67
2022/11/03 12:07:58;;;;;;;7.72;2.53;;;14.80;99.90;;;;;;5052161;28;20071;-67
2022/11/03 12:10:27;;;;;;;5.55;1.48;;;14.80;99.90;;;;;;5050547;28;20116;-67
2022/11/03 12:12:57;;;;;;;6.00;1.85;;;14.80;99.90;;;;;;5052192;28;20033;-67
2022/11/03 12:15:55;;;;;;;7.03;1.70;;;14.80;99.90;;;;;;5051960;28;20033;-67
2022/11/03 12:18:40;;;;;;;6.45;1.65;;;14.70;99.90;;;;;;5051683;28;20028;-67
2022/11/03 12:21:14;;;;;;;7.60;1.65;;;14.70;99.90;;;;;;5052040;28;20071;-67
2022/11/03 12:23:42;;;;;;;6.47;1.58;;;14.70;99.90;;;;;;5052146;28;20071;-67
2022/11/03 12:26:23;;;;;;;3.25;1.52;;;14.70;99.90;;;;;;5049255;28;20040;-67
2022/11/03 12:28:49;;;;;;;4.95;1.50;;;14.70;99.90;;;;;;5030970;28;20037;-67
2022/11/03 12:31:14;;;;;;;6.28;2.00;;;14.70;99.90;;;;;;5030128;28;20092;-67
2022/11/03 12:33:40;;;;;;;7.28;1.65;;;14.70;99.90;;;;;;5032391;28;20033;-67
2022/11/03 12:36:06;;;;;;;4.35;1.25;;;14.70;99.90;;;;;;5032116;28;20045;-67
2022/11/03 12:38:31;;;;;;;3.72;1.75;;;14.70;99.90;;;;;;5032450;28;20076;-67
2022/11/03 12:41:19;;;;;;;8.05;1.90;;;14.70;99.90;;;;;;5032200;28;20072;-67
2022/11/03 12:43:42;;;;;;;7.05;1.42;;;14.70;99.90;;;;;;5032003;28;20059;-67
2022/11/03 12:46:08;;;;;;;6.90;1.60;;;14.70;99.90;;;;;;5032334;28;20468;-67
2022/11/03 12:48:33;;;;;;;5.55;1.45;;;14.80;99.90;;;;;;5032294;28;20124;-67
2022/11/03 12:50:59;;;;;;;5.07;1.50;;;14.80;99.90;;;;;;5031700;28;20045;-67
2022/11/03 12:53:24;;;;;;;5.03;1.33;;;14.90;99.90;;;;;;5032412;28;20045;-67
2022/11/03 12:55:50;;;;;;;4.20;1.33;;;14.90;99.90;;;;;;5031493;28;20125;-67
2022/11/03 12:58:15;;;;;;;7.68;1.88;;;15.00;99.90;;;;;;5031798;28;20067;-67
2022/11/03 13:00:41;;;;;;;6.82;1.85;;;15.00;99.90;;;;;;5042101;28;20037;-67
2022/11/03 13:03:06;;;;;;;4.05;1.45;;;15.00;99.90;;;;;;5050481;28;20045;-67
2022/11/03 13:05:32;;;;;;;4.72;1.60;;;15.10;99.90;;;;;;5051848;28;20060;-71
2022/11/03 13:07:57;;;;;;;5.40;1.55;;;15.10;99.90;;;;;;5050405;28;20041;-72
2022/11/03 13:10:23;;;;;;;3.08;1.90;;;15.20;99.90;;;;;;5051718;28;20037;-71
2022/11/03 13:12:49;;;;;;;7.40;2.10;;;15.20;99.90;;;;;;5050385;28;20493;-67
2022/11/03 13:15:15;;;;;;;6.85;1.20;;;15.30;99.90;;;;;;5051672;28;20036;-69
2022/11/03 13:17:40;;;;;;;5.57;1.40;;;15.30;99.90;;;;;;5051556;28;20481;-69
2022/11/03 13:20:07;;;;;;;3.45;1.20;;;15.40;99.90;;;;;;5050679;28;20048;-69